Time;durP1;ratioP1;P1;durP2;ratioP2;P2;SDS_P1;SDS_P2;PMS_P1;PMS_P2;Temp;Humidity;BMP_temperature;BMP_pressure;BME280_temperature;BME280_humidity;BME280_pressure;Samples;Min_cycle;Max_cycle;Signal;HPM_P1;HPM_P2
2023/01/17 00:01:06;;;;;;;21.33;20.63;;;19.20;53.20;;;;;;5031807;28;20457;-60
2023/01/17 00:03:32;;;;;;;21.73;21.03;;;19.20;53.30;;;;;;5032148;28;20485;-59
2023/01/17 00:11:28;;;;;;;21.50;20.70;;;19.20;53.40;;;;;;5032242;28;20522;-62
2023/01/17 00:13:56;;;;;;;21.10;20.40;;;19.20;53.40;;;;;;5032050;28;21029;-60
2023/01/17 00:16:23;;;;;;;22.00;21.20;;;19.10;53.40;;;;;;5031897;28;20473;-60
2023/01/17 01:33:38;;;;;;;21.17;20.47;;;18.60;54.10;;;;;;5035075;28;20998;-61
2023/01/17 01:36:08;;;;;;;22.00;21.30;;;18.50;54.10;;;;;;5034871;28;20544;-62
2023/01/17 01:38:34;;;;;;;21.50;20.80;;;18.60;54.20;;;;;;5034801;28;20449;-62
2023/01/17 01:41:01;;;;;;;20.97;20.27;;;18.60;54.20;;;;;;5034717;28;20449;-62
2023/01/17 01:43:43;;;;;;;21.97;21.17;;;18.60;54.10;;;;;;5034847;28;20488;-61
2023/01/17 01:46:13;;;;;;;21.20;20.50;;;18.60;54.10;;;;;;5033758;28;21012;-62
2023/01/17 01:48:44;;;;;;;21.10;20.40;;;18.60;54.10;;;;;;5033442;28;20449;-62
2023/01/17 01:51:17;;;;;;;21.13;20.40;;;18.60;54.10;;;;;;5033651;28;20459;-62
2023/01/17 01:53:47;;;;;;;21.70;20.90;;;18.60;54.10;;;;;;5033549;28;20809;-63
2023/01/17 01:56:15;;;;;;;21.10;20.40;;;18.60;54.10;;;;;;5033473;28;21073;-61
2023/01/17 01:58:47;;;;;;;21.43;20.73;;;18.50;54.10;;;;;;5033194;28;21009;-62
2023/01/17 02:01:16;;;;;;;22.07;21.27;;;18.50;54.00;;;;;;5033302;28;20463;-62
2023/01/17 02:03:43;;;;;;;21.43;20.73;;;18.50;54.00;;;;;;5033374;28;20480;-60
2023/01/17 02:06:25;;;;;;;21.70;21.00;;;18.50;54.00;;;;;;5033109;28;20491;-62
2023/01/17 02:08:52;;;;;;;21.80;21.10;;;18.50;54.10;;;;;;5033210;28;20449;-62
2023/01/17 02:11:19;;;;;;;21.90;21.20;;;18.50;54.10;;;;;;5033133;28;20471;-62
2023/01/17 02:13:46;;;;;;;21.53;20.83;;;18.50;54.10;;;;;;5033170;28;20448;-63
2023/01/17 02:16:28;;;;;;;19.97;19.30;;;18.50;54.10;;;;;;5033208;28;20619;-62
2023/01/17 02:19:05;;;;;;;21.40;20.70;;;18.50;54.10;;;;;;5032877;28;20449;-62
2023/01/17 02:21:37;;;;;;;20.83;20.13;;;18.50;54.10;;;;;;5033102;28;20453;-64
2023/01/17 02:24:44;;;;;;;21.80;21.10;;;18.50;54.00;;;;;;5032825;28;20487;-63
2023/01/17 02:27:24;;;;;;;21.10;20.40;;;18.50;53.90;;;;;;5033039;28;20447;-61
2023/01/17 02:30:30;;;;;;;21.40;20.70;;;18.50;54.00;;;;;;5032840;28;20447;-63
2023/01/17 02:33:25;;;;;;;21.50;20.80;;;18.50;54.00;;;;;;5032947;28;21021;-63
2023/01/17 02:36:04;;;;;;;22.20;21.40;;;18.50;54.00;;;;;;5017570;28;21017;-63
2023/01/17 02:38:38;;;;;;;21.90;21.10;;;18.40;54.00;;;;;;5033078;28;20448;-63
2023/01/17 02:41:09;;;;;;;21.47;20.77;;;18.40;54.00;;;;;;5032462;28;20448;-62
2023/01/17 02:43:37;;;;;;;21.57;20.77;;;18.40;54.00;;;;;;5032682;28;20871;-60
2023/01/17 02:46:05;;;;;;;22.00;21.20;;;18.50;54.10;;;;;;4995882;28;1080269;-59
2023/01/17 02:48:36;;;;;;;22.17;21.37;;;18.40;54.00;;;;;;5033650;28;20202;-60
2023/01/17 02:51:41;;;;;;;22.23;21.43;;;18.40;54.00;;;;;;5033473;28;20446;-62
2023/01/17 02:54:46;;;;;;;21.90;21.20;;;18.40;54.00;;;;;;5024780;28;20951;-62
2023/01/17 02:57:32;;;;;;;22.23;21.10;;;18.40;54.00;;;;;;5033419;28;20436;-62
2023/01/17 03:00:03;;;;;;;22.30;21.50;;;18.40;54.00;;;;;;5033368;28;20459;-60
2023/01/17 03:02:40;;;;;;;22.00;21.20;;;18.40;54.10;;;;;;5033038;28;20848;-62
2023/01/17 03:05:11;;;;;;;22.00;21.20;;;18.30;54.00;;;;;;5033108;28;20970;-60
2023/01/17 03:07:43;;;;;;;21.60;20.80;;;18.30;54.10;;;;;;5033363;28;20473;-61
2023/01/17 03:10:12;;;;;;;21.57;20.87;;;18.30;54.10;;;;;;5033296;28;20441;-61
2023/01/17 03:12:40;;;;;;;22.37;21.57;;;18.40;54.10;;;;;;5032887;28;20957;-59
2023/01/17 03:15:10;;;;;;;22.60;21.80;;;18.40;54.10;;;;;;5033077;28;20544;-62
2023/01/17 03:17:42;;;;;;;22.20;21.40;;;18.40;54.10;;;;;;5033045;28;20837;-60
2023/01/17 03:20:11;;;;;;;21.30;20.60;;;18.40;54.10;;;;;;5032866;28;20449;-62
2023/01/17 03:22:38;;;;;;;21.37;20.67;;;18.40;54.10;;;;;;5032206;28;20485;-61
2023/01/17 03:25:05;;;;;;;21.80;21.10;;;18.40;54.10;;;;;;5032806;28;20465;-60
2023/01/17 03:27:32;;;;;;;22.20;21.40;;;18.30;54.10;;;;;;5033097;28;20506;-60
2023/01/17 03:29:59;;;;;;;21.30;20.60;;;18.30;54.10;;;;;;5032626;28;20871;-62
2023/01/17 03:32:26;;;;;;;20.97;20.27;;;18.30;54.00;;;;;;5032610;28;20452;-59
2023/01/17 03:34:54;;;;;;;21.93;21.03;;;18.30;54.10;;;;;;5032763;28;20563;-59
2023/01/17 03:37:21;;;;;;;21.60;20.90;;;18.30;54.00;;;;;;5032658;28;20978;-62
2023/01/17 03:39:48;;;;;;;22.03;21.33;;;18.30;54.00;;;;;;5032462;28;20445;-61
2023/01/17 03:42:14;;;;;;;21.50;20.70;;;18.30;54.10;;;;;;5032549;28;20459;-59
2023/01/17 03:44:41;;;;;;;21.30;20.60;;;18.30;54.10;;;;;;5032439;28;21038;-61
2023/01/17 03:47:10;;;;;;;21.60;20.90;;;18.30;54.10;;;;;;5032695;28;20539;-58
2023/01/17 03:49:37;;;;;;;21.60;20.90;;;18.30;54.10;;;;;;5032492;28;20452;-59
2023/01/17 03:52:06;;;;;;;22.00;21.30;;;18.30;54.10;;;;;;5032383;28;20447;-61
2023/01/17 03:54:33;;;;;;;21.37;20.67;;;18.30;54.10;;;;;;5032146;28;20442;-62
2023/01/17 03:57:00;;;;;;;21.63;20.93;;;18.30;54.10;;;;;;5032535;28;20805;-62
2023/01/17 03:59:27;;;;;;;22.30;21.50;;;18.30;54.10;;;;;;5032195;28;20536;-59
2023/01/17 04:01:53;;;;;;;23.20;22.00;;;18.30;54.10;;;;;;5032291;28;20537;-62
2023/01/17 04:04:20;;;;;;;22.30;21.50;;;18.30;54.10;;;;;;5032201;28;20567;-62
2023/01/17 04:06:47;;;;;;;22.70;21.80;;;18.30;54.10;;;;;;5028037;28;20461;-62
2023/01/17 04:09:15;;;;;;;21.57;20.87;;;18.20;54.00;;;;;;5032081;28;20536;-62
2023/01/17 04:11:42;;;;;;;22.50;21.80;;;18.30;54.10;;;;;;5032313;28;20451;-60
2023/01/17 04:14:09;;;;;;;22.37;21.60;;;18.30;54.10;;;;;;5032207;28;20919;-59
2023/01/17 04:16:37;;;;;;;22.40;21.60;;;18.20;54.00;;;;;;5032189;28;20544;-59
2023/01/17 04:19:04;;;;;;;22.07;21.37;;;18.30;54.10;;;;;;5031841;28;20457;-62
2023/01/17 04:21:31;;;;;;;22.73;21.93;;;18.20;54.00;;;;;;5031962;28;20814;-59
2023/01/17 04:23:58;;;;;;;22.13;21.23;;;18.30;54.10;;;;;;5031887;28;20485;-60
2023/01/17 04:26:26;;;;;;;21.60;20.80;;;18.30;54.20;;;;;;5031874;28;20909;-60
2023/01/17 04:28:53;;;;;;;22.40;21.60;;;18.30;54.10;;;;;;5031834;28;20903;-62
2023/01/17 04:31:20;;;;;;;21.80;21.10;;;18.20;54.00;;;;;;5032012;28;20541;-60
2023/01/17 04:33:46;;;;;;;22.17;21.30;;;18.20;54.10;;;;;;5031525;28;20487;-61
2023/01/17 04:36:13;;;;;;;22.30;21.50;;;18.20;54.10;;;;;;5030887;28;20544;-60
2023/01/17 04:38:40;;;;;;;21.67;20.80;;;18.20;54.10;;;;;;5031845;28;20441;-60
2023/01/17 04:41:07;;;;;;;22.30;21.60;;;18.20;54.10;;;;;;5031835;28;20531;-62
2023/01/17 04:43:35;;;;;;;22.20;21.40;;;18.20;54.10;;;;;;5031686;28;20481;-60
2023/01/17 04:46:03;;;;;;;22.10;21.30;;;18.20;54.10;;;;;;5031499;28;20893;-61
2023/01/17 04:48:30;;;;;;;22.30;21.50;;;18.20;54.10;;;;;;5031676;28;20453;-59
2023/01/17 04:51:00;;;;;;;22.17;21.37;;;18.20;54.20;;;;;;5031515;28;20455;-62
2023/01/17 04:53:27;;;;;;;22.87;22.07;;;18.20;54.20;;;;;;5031671;28;20441;-61
2023/01/17 04:55:54;;;;;;;22.63;21.73;;;18.20;54.10;;;;;;5031126;28;20547;-60
2023/01/17 04:58:21;;;;;;;22.10;21.30;;;18.20;54.20;;;;;;5031744;28;20531;-60
2023/01/17 05:00:50;;;;;;;24.70;23.80;;;18.20;54.20;;;;;;5031398;28;20455;-59
2023/01/17 05:03:17;;;;;;;24.40;23.50;;;18.20;54.60;;;;;;5031812;28;20491;-59
2023/01/17 05:05:44;;;;;;;24.80;23.90;;;18.20;54.10;;;;;;5031307;28;20991;-60
2023/01/17 05:08:11;;;;;;;23.90;23.00;;;18.20;54.10;;;;;;5031594;28;20880;-60
2023/01/17 05:10:37;;;;;;;23.70;22.80;;;18.20;54.20;;;;;;5031262;28;20548;-62
2023/01/17 05:13:04;;;;;;;23.83;22.87;;;18.20;54.20;;;;;;5031714;28;20441;-58
2023/01/17 05:15:31;;;;;;;24.10;23.20;;;18.20;54.20;;;;;;5031542;28;20467;-60
2023/01/17 05:18:00;;;;;;;23.93;23.03;;;18.20;54.30;;;;;;5031621;28;20453;-63
2023/01/17 05:20:26;;;;;;;23.90;23.03;;;18.20;54.30;;;;;;5031949;28;20524;-62
2023/01/17 05:22:55;;;;;;;25.00;24.10;;;18.20;54.30;;;;;;5041837;28;20467;-61
2023/01/17 05:25:22;;;;;;;24.20;23.20;;;18.20;54.30;;;;;;5043934;28;20469;-61
2023/01/17 05:27:49;;;;;;;23.70;22.77;;;18.20;54.30;;;;;;5045120;28;20532;-62
2023/01/17 05:30:17;;;;;;;24.30;23.10;;;18.20;54.30;;;;;;5045021;28;20472;-61
2023/01/17 05:32:48;;;;;;;25.60;24.20;;;18.30;54.40;;;;;;5045157;28;20445;-61
2023/01/17 05:35:18;;;;;;;25.13;23.93;;;18.20;54.40;;;;;;5044958;28;20461;-61
2023/01/17 05:37:47;;;;;;;27.53;25.40;;;18.30;54.70;;;;;;5033907;28;20950;-60
2023/01/17 05:40:15;;;;;;;26.90;24.87;;;18.20;55.10;;;;;;5032148;28;20463;-61
2023/01/17 05:42:45;;;;;;;27.40;25.40;;;18.30;55.80;;;;;;5031982;28;20812;-59
2023/01/17 05:45:15;;;;;;;26.93;25.60;;;18.30;56.00;;;;;;5031045;28;20480;-59
2023/01/17 05:47:42;;;;;;;25.67;23.80;;;18.30;56.90;;;;;;5034629;28;20896;-56
2023/01/17 05:50:10;;;;;;;25.90;24.27;;;18.30;57.40;;;;;;5034602;28;20963;-57
2023/01/17 05:52:39;;;;;;;26.10;24.70;;;18.30;57.60;;;;;;5034629;28;20441;-58
2023/01/17 05:55:06;;;;;;;24.57;23.50;;;18.30;57.60;;;;;;5034750;28;20457;-57
2023/01/17 05:57:33;;;;;;;25.67;24.40;;;18.30;57.40;;;;;;5035278;28;20452;-58
2023/01/17 06:00:00;;;;;;;26.50;25.07;;;18.40;57.30;;;;;;5034900;28;20541;-59
2023/01/17 06:02:27;;;;;;;27.00;25.30;;;18.30;57.00;;;;;;5034799;28;20476;-58
2023/01/17 06:04:54;;;;;;;26.50;25.20;;;18.40;56.80;;;;;;5034358;28;20591;-57
2023/01/17 06:07:21;;;;;;;26.77;25.60;;;18.40;56.60;;;;;;5034613;28;20444;-58
2023/01/17 06:09:49;;;;;;;25.47;24.17;;;18.40;56.40;;;;;;5034196;28;20535;-59
2023/01/17 06:12:16;;;;;;;25.20;24.00;;;18.40;56.30;;;;;;5034325;28;20540;-59
2023/01/17 06:14:42;;;;;;;25.47;24.30;;;18.40;56.20;;;;;;5034347;28;20447;-55
2023/01/17 06:17:09;;;;;;;25.60;24.10;;;18.40;56.00;;;;;;5034390;28;20889;-60
2023/01/17 06:19:36;;;;;;;25.13;23.93;;;18.40;55.90;;;;;;5034082;28;20449;-57
2023/01/17 06:22:04;;;;;;;25.87;24.47;;;18.40;55.80;;;;;;5034147;28;21041;-59
2023/01/17 06:24:32;;;;;;;24.50;23.27;;;18.40;55.70;;;;;;5034103;28;20487;-58
2023/01/17 06:27:00;;;;;;;25.80;24.40;;;18.40;55.50;;;;;;5034043;28;20544;-59
2023/01/17 06:29:27;;;;;;;25.40;24.20;;;18.40;55.40;;;;;;5034009;28;20481;-58
2023/01/17 06:31:53;;;;;;;25.90;24.50;;;18.50;55.40;;;;;;5034222;28;20528;-60
2023/01/17 06:34:20;;;;;;;25.77;24.40;;;18.50;55.30;;;;;;5033932;28;20532;-58
2023/01/17 06:36:47;;;;;;;24.33;23.10;;;18.50;55.20;;;;;;5034002;28;20905;-57
2023/01/17 06:39:14;;;;;;;25.10;23.90;;;18.50;55.10;;;;;;5033700;28;20447;-60
2023/01/17 06:41:41;;;;;;;25.37;24.27;;;18.50;55.50;;;;;;5034603;22;20566;-61
2023/01/17 06:44:10;;;;;;;25.70;24.60;;;18.50;54.90;;;;;;5025319;28;20480;-61
2023/01/17 06:46:37;;;;;;;25.03;23.93;;;18.50;54.80;;;;;;5033681;28;20889;-61
2023/01/17 06:49:04;;;;;;;25.33;24.13;;;18.40;54.70;;;;;;5033357;28;20449;-60
2023/01/17 06:51:31;;;;;;;25.03;24.03;;;18.50;54.70;;;;;;5033579;28;20461;-61
2023/01/17 06:53:58;;;;;;;24.90;23.60;;;18.50;54.70;;;;;;5033636;28;20871;-61
2023/01/17 06:56:25;;;;;;;25.70;24.60;;;18.50;54.60;;;;;;5033702;28;20793;-60
2023/01/17 06:58:52;;;;;;;25.27;24.20;;;18.50;54.50;;;;;;5032585;28;20445;-62
2023/01/17 07:01:20;;;;;;;25.03;23.83;;;18.50;54.50;;;;;;5033460;28;20465;-61
2023/01/17 07:03:47;;;;;;;25.63;24.53;;;18.50;54.40;;;;;;5033374;28;20480;-61
2023/01/17 07:06:14;;;;;;;25.63;24.53;;;18.50;54.40;;;;;;5033452;28;20450;-61
2023/01/17 07:08:40;;;;;;;26.67;25.37;;;18.40;54.20;;;;;;5033344;28;20451;-61
2023/01/17 07:11:08;;;;;;;25.30;24.30;;;18.50;54.30;;;;;;5033212;28;20560;-61
2023/01/17 07:13:35;;;;;;;24.50;23.40;;;18.40;54.20;;;;;;5033320;28;20954;-61
2023/01/17 07:16:03;;;;;;;25.93;24.70;;;18.50;54.20;;;;;;5033134;28;20445;-61
2023/01/17 07:18:32;;;;;;;25.47;24.37;;;18.50;54.10;;;;;;5033363;28;20453;-61
2023/01/17 07:20:59;;;;;;;25.90;24.70;;;18.50;54.10;;;;;;5032653;28;20475;-59
2023/01/17 07:23:26;;;;;;;27.10;25.90;;;18.40;54.00;;;;;;5033022;28;20452;-61
2023/01/17 07:25:53;;;;;;;25.50;24.50;;;18.40;54.00;;;;;;5033113;28;20443;-61
2023/01/17 07:28:20;;;;;;;28.57;27.10;;;18.40;54.00;;;;;;5033184;28;20441;-61
2023/01/17 07:30:47;;;;;;;26.03;25.00;;;18.40;54.50;;;;;;5032717;28;20461;-62
2023/01/17 07:33:13;;;;;;;27.03;25.80;;;18.50;54.00;;;;;;5032815;28;20441;-61
2023/01/17 07:35:42;;;;;;;25.90;24.80;;;18.50;53.90;;;;;;5032841;28;20437;-62
2023/01/17 07:38:13;;;;;;;26.10;24.90;;;18.50;53.90;;;;;;5032858;28;21125;-63
2023/01/17 07:40:40;;;;;;;27.20;26.10;;;18.50;53.90;;;;;;5032563;28;20994;-62
2023/01/17 07:43:12;;;;;;;26.00;24.80;;;18.50;53.90;;;;;;5032674;28;20926;-62
2023/01/17 07:45:41;;;;;;;26.27;25.07;;;18.50;53.90;;;;;;5032781;28;20481;-62
2023/01/17 07:48:08;;;;;;;26.73;25.63;;;18.50;53.80;;;;;;5032644;28;20445;-62
2023/01/17 07:50:35;;;;;;;26.73;25.53;;;18.50;53.80;;;;;;5032189;28;20473;-62
2023/01/17 07:53:04;;;;;;;25.67;24.67;;;18.50;53.80;;;;;;5032642;28;20441;-61
2023/01/17 07:55:31;;;;;;;27.40;26.20;;;18.50;53.70;;;;;;5032692;28;20444;-60
2023/01/17 07:57:58;;;;;;;26.60;24.87;;;18.50;53.70;;;;;;5032617;28;20448;-61
2023/01/17 08:00:26;;;;;;;25.10;24.20;;;18.50;53.70;;;;;;5032101;28;20524;-60
2023/01/17 08:02:56;;;;;;;25.50;24.30;;;18.50;53.60;;;;;;5032498;28;20510;-61
2023/01/17 08:05:24;;;;;;;26.10;25.00;;;18.50;53.60;;;;;;5032264;28;20481;-62
2023/01/17 08:07:50;;;;;;;27.50;26.30;;;18.50;53.60;;;;;;5032328;28;20441;-62
2023/01/17 08:10:19;;;;;;;25.60;24.50;;;18.60;53.60;;;;;;5031829;28;20532;-63
2023/01/17 08:12:46;;;;;;;27.13;26.03;;;18.50;53.50;;;;;;5032345;28;20949;-62
2023/01/17 08:15:14;;;;;;;25.87;24.87;;;18.50;53.50;;;;;;5032353;28;20449;-61
2023/01/17 08:17:45;;;;;;;26.20;25.20;;;18.50;53.50;;;;;;5032358;28;20448;-60
2023/01/17 08:20:12;;;;;;;24.83;23.83;;;18.50;53.50;;;;;;5031998;28;20457;-61
2023/01/17 08:22:39;;;;;;;24.80;23.90;;;18.50;53.40;;;;;;5031973;28;20904;-61
2023/01/17 08:25:07;;;;;;;24.70;23.60;;;18.50;53.40;;;;;;5032220;28;20573;-61
2023/01/17 08:27:35;;;;;;;25.63;24.43;;;18.50;53.40;;;;;;5032126;28;20456;-63
2023/01/17 08:30:02;;;;;;;26.97;25.87;;;18.50;53.40;;;;;;5031805;28;20540;-62
2023/01/17 08:32:28;;;;;;;26.10;25.10;;;18.50;53.40;;;;;;5031823;28;20899;-62
2023/01/17 08:34:56;;;;;;;26.10;25.10;;;18.50;53.30;;;;;;5032101;28;20456;-61
2023/01/17 08:37:23;;;;;;;24.60;23.60;;;18.50;53.30;;;;;;5031897;28;20445;-61
2023/01/17 08:39:49;;;;;;;25.93;24.83;;;18.50;53.30;;;;;;5031740;28;20441;-61
2023/01/17 08:42:16;;;;;;;25.47;24.30;;;18.50;53.30;;;;;;5031787;28;21096;-62
2023/01/17 08:44:44;;;;;;;25.53;24.50;;;18.40;53.20;;;;;;5031707;28;20495;-61
2023/01/17 08:47:11;;;;;;;25.20;24.10;;;18.50;53.30;;;;;;5031768;28;20938;-62
2023/01/17 08:49:38;;;;;;;25.30;24.10;;;18.50;53.20;;;;;;5031525;28;20499;-61
2023/01/17 08:52:06;;;;;;;25.53;24.53;;;18.50;53.30;;;;;;5031622;28;20863;-60
2023/01/17 08:54:32;;;;;;;26.00;25.00;;;18.50;53.20;;;;;;5031767;28;20437;-60
2023/01/17 08:57:02;;;;;;;26.70;25.60;;;18.50;53.20;;;;;;5031696;28;20536;-61
2023/01/17 08:59:28;;;;;;;26.17;25.10;;;18.50;53.30;;;;;;5031794;28;20457;-62
2023/01/17 09:01:59;;;;;;;25.77;24.67;;;18.50;53.20;;;;;;5031639;28;20465;-60
2023/01/17 09:04:26;;;;;;;26.30;25.30;;;18.60;53.30;;;;;;5031636;28;20481;-61
2023/01/17 09:06:53;;;;;;;25.50;24.50;;;18.60;53.30;;;;;;5031606;28;20956;-60
2023/01/17 09:09:20;;;;;;;25.67;24.67;;;18.60;53.30;;;;;;5031558;28;20882;-62
2023/01/17 09:11:47;;;;;;;27.33;26.23;;;18.60;53.20;;;;;;5031781;28;20465;-60
2023/01/17 09:14:14;;;;;;;26.80;25.70;;;18.60;53.20;;;;;;5031634;28;20455;-61
2023/01/17 09:16:41;;;;;;;26.03;25.03;;;18.60;53.10;;;;;;5031913;28;20511;-61
2023/01/17 09:19:09;;;;;;;26.33;25.23;;;18.60;53.10;;;;;;5031771;28;20453;-62
2023/01/17 09:21:36;;;;;;;26.33;25.17;;;18.60;53.10;;;;;;5034708;28;20560;-62
2023/01/17 09:24:02;;;;;;;25.90;24.80;;;18.60;53.10;;;;;;5037904;28;20548;-62
2023/01/17 09:26:30;;;;;;;26.57;25.47;;;18.60;53.00;;;;;;5037081;28;20487;-62
2023/01/17 09:28:57;;;;;;;26.10;25.10;;;18.60;53.00;;;;;;5036813;28;20532;-62
2023/01/17 09:31:25;;;;;;;26.50;25.40;;;18.60;53.00;;;;;;5036330;28;20471;-62
2023/01/17 09:33:54;;;;;;;27.10;26.00;;;18.60;52.90;;;;;;5037149;28;20452;-62
2023/01/17 09:36:23;;;;;;;25.87;24.87;;;18.60;52.90;;;;;;5037693;28;20441;-62
2023/01/17 09:38:49;;;;;;;27.40;26.20;;;18.60;52.80;;;;;;5035272;28;20463;-62
2023/01/17 09:41:26;;;;;;;26.13;25.07;;;18.60;52.80;;;;;;5034718;28;20559;-61
2023/01/17 09:43:59;;;;;;;26.90;25.77;;;18.60;52.80;;;;;;5035070;28;20483;-60
2023/01/17 09:46:29;;;;;;;26.53;25.53;;;18.60;52.80;;;;;;5034968;28;20485;-61
2023/01/17 09:49:04;;;;;;;27.07;25.87;;;18.60;52.70;;;;;;5034690;28;20944;-61
2023/01/17 09:51:32;;;;;;;27.17;26.13;;;18.60;52.70;;;;;;5034718;28;20467;-61
2023/01/17 09:54:01;;;;;;;25.63;24.53;;;18.60;52.70;;;;;;5034707;28;20814;-59
2023/01/17 09:56:31;;;;;;;26.80;25.60;;;18.60;52.70;;;;;;5034620;28;20452;-62
2023/01/17 09:59:13;;;;;;;26.20;25.10;;;18.60;52.70;;;;;;5034462;28;20447;-60
2023/01/17 10:01:49;;;;;;;26.40;25.30;;;18.60;52.70;;;;;;5034497;28;20457;-61
2023/01/17 10:04:32;;;;;;;26.53;25.37;;;18.60;52.60;;;;;;5034576;28;20449;-59
2023/01/17 10:07:14;;;;;;;26.30;25.30;;;18.50;52.60;;;;;;5035050;28;20443;-61
2023/01/17 10:10:02;;;;;;;26.40;25.20;;;18.50;52.60;;;;;;5034327;28;20451;-61
2023/01/17 10:12:35;;;;;;;26.57;25.47;;;18.50;52.60;;;;;;5034623;28;20452;-61
2023/01/17 10:15:37;;;;;;;27.80;26.70;;;18.50;52.60;;;;;;5034408;28;20503;-62
2023/01/17 10:18:24;;;;;;;26.67;25.63;;;18.60;52.70;;;;;;5034251;28;20528;-62
2023/01/17 10:20:58;;;;;;;27.93;26.83;;;18.60;52.70;;;;;;5034302;28;20495;-62
2023/01/17 10:23:49;;;;;;;27.53;26.33;;;18.60;52.70;;;;;;5034168;28;20790;-63
2023/01/17 10:26:18;;;;;;;26.80;25.70;;;18.60;52.80;;;;;;5034286;28;20491;-61
2023/01/17 10:28:49;;;;;;;27.00;25.90;;;18.60;52.80;;;;;;5034233;28;20445;-63
2023/01/17 10:31:21;;;;;;;26.30;25.30;;;18.60;52.80;;;;;;5034154;28;20469;-62
2023/01/17 10:33:51;;;;;;;26.60;25.50;;;18.70;52.90;;;;;;5032796;28;20441;-61
2023/01/17 10:36:20;;;;;;;27.40;26.30;;;18.70;52.80;;;;;;5033950;28;20437;-61
2023/01/17 10:38:52;;;;;;;27.10;25.90;;;18.70;52.80;;;;;;5033834;28;20449;-61
2023/01/17 10:41:24;;;;;;;25.83;24.83;;;18.70;52.70;;;;;;5033796;28;20480;-61
2023/01/17 10:44:01;;;;;;;27.17;26.07;;;18.70;52.60;;;;;;5033823;28;20445;-62
2023/01/17 10:46:34;;;;;;;25.80;24.80;;;18.70;52.60;;;;;;5033812;28;20499;-62
2023/01/17 10:49:02;;;;;;;26.53;25.43;;;18.70;52.50;;;;;;5033708;28;20449;-61
2023/01/17 10:51:58;;;;;;;25.30;24.20;;;18.70;52.50;;;;;;5033581;28;20469;-61
2023/01/17 10:54:43;;;;;;;27.33;25.93;;;18.70;52.50;;;;;;5033613;28;20476;-63
2023/01/17 10:57:14;;;;;;;25.77;24.77;;;18.80;52.60;;;;;;5033625;28;20445;-61
2023/01/17 10:59:42;;;;;;;26.83;25.63;;;18.80;52.50;;;;;;5033366;28;20451;-62
2023/01/17 11:02:20;;;;;;;25.90;24.90;;;18.80;53.00;;;;;;5033384;28;20495;-61
2023/01/17 11:04:50;;;;;;;26.27;25.27;;;18.70;52.40;;;;;;5033168;28;20456;-61
2023/01/17 11:07:19;;;;;;;27.40;26.30;;;18.70;52.30;;;;;;5033226;28;20449;-62
2023/01/17 11:09:49;;;;;;;26.70;25.60;;;18.80;52.40;;;;;;5033118;28;20445;-61
2023/01/17 11:12:20;;;;;;;26.70;25.50;;;18.80;52.40;;;;;;5033165;28;20472;-60
2023/01/17 11:15:00;;;;;;;25.73;24.70;;;18.70;52.30;;;;;;5033231;28;20455;-62
2023/01/17 11:17:27;;;;;;;27.37;26.03;;;18.70;52.20;;;;;;5033234;28;20455;-63
2023/01/17 11:20:05;;;;;;;25.63;24.63;;;18.70;52.20;;;;;;5033053;28;20448;-62
2023/01/17 11:22:32;;;;;;;25.33;24.33;;;18.70;52.20;;;;;;5032924;28;20461;-60
2023/01/17 11:25:01;;;;;;;24.60;23.60;;;18.70;52.20;;;;;;5031848;28;20504;-61
2023/01/17 11:27:30;;;;;;;25.63;24.53;;;18.70;52.20;;;;;;5031215;28;20456;-62
2023/01/17 11:30:14;;;;;;;26.27;25.17;;;18.70;52.20;;;;;;5031675;28;20503;-60
2023/01/17 11:32:51;;;;;;;27.10;25.90;;;18.70;52.20;;;;;;5032319;28;20452;-62
2023/01/17 11:35:21;;;;;;;27.37;26.07;;;18.70;52.20;;;;;;5032053;28;20491;-61
2023/01/17 11:37:59;;;;;;;26.80;25.80;;;18.70;52.20;;;;;;5031686;28;20863;-61
2023/01/17 11:40:29;;;;;;;26.80;25.60;;;18.70;52.20;;;;;;5031292;28;20451;-61
2023/01/17 11:43:04;;;;;;;27.23;26.13;;;18.70;52.20;;;;;;5031724;28;20459;-60
2023/01/17 11:45:32;;;;;;;26.13;25.13;;;18.70;52.20;;;;;;5032112;28;20486;-62
2023/01/17 11:48:14;;;;;;;25.27;24.27;;;18.60;52.10;;;;;;5032886;28;20441;-61
2023/01/17 11:50:44;;;;;;;25.50;24.50;;;18.60;52.10;;;;;;5032153;28;20552;-62
2023/01/17 11:53:19;;;;;;;25.00;23.80;;;18.70;52.20;;;;;;5032582;28;20502;-62
2023/01/17 11:55:56;;;;;;;25.80;24.70;;;18.70;52.20;;;;;;5032389;28;20479;-61
2023/01/17 11:58:24;;;;;;;25.67;24.57;;;18.60;52.20;;;;;;5032595;28;20451;-61
2023/01/17 12:01:09;;;;;;;25.67;24.67;;;18.70;52.30;;;;;;5032266;28;20552;-63
2023/01/17 12:03:54;;;;;;;26.17;25.07;;;18.70;52.30;;;;;;5032614;28;20961;-62
2023/01/17 12:06:33;;;;;;;27.37;26.20;;;18.70;52.30;;;;;;5032070;28;20508;-61
2023/01/17 12:09:21;;;;;;;26.90;25.63;;;18.70;52.80;;;;;;5032074;28;20444;-62
2023/01/17 12:14:55;;;;;;;25.60;24.60;;;18.80;52.30;;;;;;5032257;28;20909;-62
2023/01/17 12:17:38;;;;;;;25.50;24.50;;;18.80;52.40;;;;;;5032070;28;20441;-61
2023/01/17 12:20:15;;;;;;;25.77;24.60;;;18.80;52.30;;;;;;5031895;28;20449;-61
2023/01/17 12:23:15;;;;;;;25.13;24.03;;;18.90;52.40;;;;;;5032141;28;20484;-61
2023/01/17 12:25:56;;;;;;;25.90;24.80;;;18.80;52.30;;;;;;5031835;28;20573;-62
2023/01/17 12:28:50;;;;;;;25.20;24.20;;;18.90;52.80;;;;;;5031962;28;20455;-62
2023/01/17 12:31:29;;;;;;;25.20;24.10;;;18.90;52.30;;;;;;5031829;28;20469;-62
2023/01/17 12:34:02;;;;;;;25.00;24.00;;;18.90;52.30;;;;;;5031888;28;20455;-62
2023/01/17 12:36:38;;;;;;;25.10;24.10;;;18.90;52.20;;;;;;5031761;28;20447;-61
2023/01/17 12:39:10;;;;;;;25.67;24.63;;;18.90;52.20;;;;;;5031617;28;21004;-62
2023/01/17 12:41:58;;;;;;;25.87;24.87;;;18.90;52.10;;;;;;5080271;22;20487;-58
2023/01/17 12:44:41;;;;;;;25.73;24.53;;;18.90;52.10;;;;;;5049234;28;20949;-60
2023/01/17 12:47:09;;;;;;;25.20;24.20;;;18.90;52.10;;;;;;5051447;28;20483;-60
2023/01/17 12:49:42;;;;;;;26.00;24.90;;;18.90;52.10;;;;;;5051432;28;20533;-60
2023/01/17 12:52:17;;;;;;;26.90;25.80;;;18.90;52.00;;;;;;5051503;28;20949;-58
2023/01/17 12:54:47;;;;;;;26.10;25.10;;;18.90;52.00;;;;;;5051495;28;20528;-59
2023/01/17 12:57:17;;;;;;;27.50;26.40;;;18.90;52.00;;;;;;5054718;28;20439;-60
2023/01/17 12:59:50;;;;;;;26.60;25.50;;;18.90;52.00;;;;;;5055408;28;20817;-59
2023/01/17 13:02:26;;;;;;;26.90;25.70;;;18.90;52.00;;;;;;5055588;28;20472;-59
2023/01/17 13:04:58;;;;;;;24.87;23.87;;;18.90;52.00;;;;;;5055695;28;20452;-62
2023/01/17 13:07:33;;;;;;;26.40;25.30;;;18.90;51.90;;;;;;5055449;28;20476;-61
2023/01/17 13:10:08;;;;;;;26.20;25.10;;;18.90;51.90;;;;;;5055554;28;20447;-58
2023/01/17 13:12:38;;;;;;;26.20;25.10;;;18.90;51.90;;;;;;5055300;28;20469;-59
2023/01/17 13:15:14;;;;;;;25.30;24.30;;;18.90;52.00;;;;;;5055609;28;20444;-58
2023/01/17 13:17:46;;;;;;;24.87;23.87;;;18.90;52.00;;;;;;5055391;28;20450;-57
2023/01/17 13:20:21;;;;;;;26.07;25.07;;;18.90;52.00;;;;;;5055153;28;20454;-59
2023/01/17 13:22:49;;;;;;;24.37;23.47;;;18.90;52.00;;;;;;5055137;28;20602;-62
2023/01/17 13:25:32;;;;;;;24.83;23.83;;;18.90;52.00;;;;;;5055621;28;20444;-62
2023/01/17 13:28:07;;;;;;;24.10;23.10;;;18.90;52.00;;;;;;5055110;28;20436;-60
2023/01/17 13:31:02;;;;;;;24.10;23.17;;;18.90;52.00;;;;;;5054953;28;20458;-58
2023/01/17 13:33:46;;;;;;;25.40;24.40;;;18.90;52.00;;;;;;5055112;28;20976;-59
2023/01/17 13:36:45;;;;;;;24.60;23.60;;;18.90;52.00;;;;;;5055328;28;20470;-58
2023/01/17 13:39:32;;;;;;;25.20;24.20;;;18.90;52.00;;;;;;5043173;28;20816;-60
2023/01/17 13:42:11;;;;;;;26.23;25.23;;;19.00;52.10;;;;;;5054749;28;20686;-59
2023/01/17 13:44:38;;;;;;;26.50;25.50;;;19.00;52.10;;;;;;5054957;28;20466;-58
2023/01/17 13:47:39;;;;;;;25.93;24.83;;;19.00;52.10;;;;;;5054826;28;20479;-56
2023/01/17 13:50:27;;;;;;;26.80;25.70;;;19.10;52.20;;;;;;5054561;28;20472;-61
2023/01/17 13:52:56;;;;;;;26.17;25.07;;;19.10;52.20;;;;;;5054441;28;20977;-62
2023/01/17 13:55:45;;;;;;;26.90;25.60;;;19.10;52.10;;;;;;5054749;28;20964;-61
2023/01/17 13:58:27;;;;;;;27.70;26.60;;;19.10;52.10;;;;;;5054594;28;20448;-61
2023/01/17 14:00:53;;;;;;;26.80;25.73;;;19.20;52.10;;;;;;5054265;28;20443;-61
2023/01/17 14:03:54;;;;;;;25.00;24.00;;;19.20;52.00;;;;;;5054531;28;20530;-60
2023/01/17 14:06:47;;;;;;;24.93;23.93;;;19.20;52.00;;;;;;5053819;28;20855;-59
2023/01/17 14:09:19;;;;;;;24.30;23.30;;;19.20;51.90;;;;;;5040108;28;20457;-60
2023/01/17 14:11:56;;;;;;;24.87;23.87;;;19.20;51.90;;;;;;5054436;28;20569;-61